Time,TemperatureF,DewpointF,PressureIn,WindDirection,WindDirectionDegrees,WindSpeedMPH,WindSpeedGustMPH,Humidity,HourlyPrecipIn,Conditions,Clouds,dailyrainin,SoftwareType,DateUTC
2013-05-24 00:00:00,62.8,58.9,29.76,North,0,0.0,0.0,87,0.00,,OVC045,0.00,VWS V14.00,2013-05-24 04:00:00,
2013-05-24 00:15:00,62.8,58.5,29.76,North,0,0.0,0.0,86,0.00,,OVC045,0.00,VWS V14.00,2013-05-24 04:15:00,
2013-05-24 00:30:00,62.8,58.5,29.76,North,0,0.0,0.0,86,0.00,,SCT050,0.00,VWS V14.00,2013-05-24 04:30:00,
2013-05-24 00:45:00,63.0,58.7,29.76,North,0,0.0,0.0,86,0.00,,-RA,0.00,VWS V14.00,2013-05-24 04:45:00,
2013-05-24 01:00:00,62.8,58.5,29.76,North,0,0.0,0.0,86,0.00,,SCT050,0.00,VWS V14.00,2013-05-24 05:00:00,
2013-05-24 01:15:00,62.8,58.5,29.76,North,0,0.0,0.0,86,0.00,,,0.00,VWS V14.00,2013-05-24 05:15:00,
2013-05-24 01:30:00,63.0,58.7,29.76,North,0,0.0,0.0,86,0.00,,,0.00,VWS V14.00,2013-05-24 05:30:00,
2013-05-24 01:45:00,63.0,58.7,29.76,North,0,0.0,0.0,86,0.00,,,0.00,VWS V14.00,2013-05-24 05:45:00,
2013-05-24 02:00:00,63.0,58.7,29.76,North,0,0.0,0.0,86,0.00,,,0.00,VWS V14.00,2013-05-24 06:00:00,
2013-05-24 02:15:00,63.0,58.7,29.73,North,0,0.0,0.0,86,0.00,,,0.00,VWS V14.00,2013-05-24 06:15:00,
2013-05-24 02:30:00,63.0,58.7,29.73,North,0,0.0,0.0,86,0.00,,,0.00,VWS V14.00,2013-05-24 06:30:00,
2013-05-24 02:44:00,62.8,58.5,29.73,North,0,0.0,0.0,86,0.00,,,0.00,VWS V14.00,2013-05-24 06:44:00,
2013-05-24 02:59:00,62.8,58.5,29.73,North,0,0.0,0.0,86,0.00,,,0.00,VWS V14.00,2013-05-24 06:59:00,
2013-05-24 03:14:00,63.0,59.0,29.73,North,0,0.0,0.0,87,0.00,,,0.00,VWS V14.00,2013-05-24 07:14:00,
2013-05-24 03:29:00,62.8,58.9,29.73,North,0,0.0,0.0,87,0.00,,,0.00,VWS V14.00,2013-05-24 07:29:00,
2013-05-24 03:44:00,62.8,58.9,29.73,North,0,0.0,0.0,87,0.00,,,0.00,VWS V14.00,2013-05-24 07:44:00,
2013-05-24 03:59:00,62.8,58.9,29.73,North,0,0.0,0.0,87,0.00,,,0.00,VWS V14.00,2013-05-24 07:59:00,
2013-05-24 04:14:00,62.6,58.4,29.73,North,0,0.0,0.0,86,0.00,,OVC075,0.00,VWS V14.00,2013-05-24 08:14:00,
2013-05-24 04:29:00,62.6,58.4,29.73,North,0,0.0,0.0,86,0.00,,OVC075,0.00,VWS V14.00,2013-05-24 08:29:00,
2013-05-24 04:44:00,62.1,57.8,29.73,North,0,0.0,0.0,86,0.00,,OVC075,0.00,VWS V14.00,2013-05-24 08:44:00,
2013-05-24 04:59:00,61.2,55.6,29.76,North,0,0.0,0.0,82,0.00,,OVC075,0.00,VWS V14.00,2013-05-24 08:59:00,
2013-05-24 05:14:00,60.6,52.7,29.76,North,0,0.0,0.0,75,0.00,,OVC075,0.00,VWS V14.00,2013-05-24 09:14:00,
2013-05-24 05:29:00,59.7,49.5,29.79,North,0,0.0,0.0,69,0.00,,OVC075,0.00,VWS V14.00,2013-05-24 09:29:00,
2013-05-24 05:44:00,59.4,48.8,29.79,North,0,0.0,0.0,68,0.00,,OVC075,0.00,VWS V14.00,2013-05-24 09:44:00,
2013-05-24 05:59:00,58.3,46.6,29.79,North,0,0.0,0.0,65,0.00,,,0.00,VWS V14.00,2013-05-24 09:59:00,
2013-05-24 06:14:00,57.0,46.2,29.82,North,0,0.0,0.0,67,0.00,,,0.00,VWS V14.00,2013-05-24 10:14:00,
2013-05-24 06:29:00,56.5,44.5,29.85,North,0,0.0,0.0,64,0.00,,,0.00,VWS V14.00,2013-05-24 10:29:00,
2013-05-24 06:44:00,55.9,44.8,29.85,North,0,0.0,0.0,66,0.00,,-RA,0.00,VWS V14.00,2013-05-24 10:44:00,
2013-05-24 06:59:00,55.4,44.6,29.85,North,0,0.0,0.0,67,0.00,,-RA,0.00,VWS V14.00,2013-05-24 10:59:00,
2013-05-24 07:14:00,54.0,44.0,29.88,North,0,0.0,0.0,69,0.00,,-RA,0.00,VWS V14.00,2013-05-24 11:14:00,
2013-05-24 07:30:00,52.7,42.5,29.88,North,0,0.0,0.0,68,0.00,,-RA,0.00,VWS V14.00,2013-05-24 11:30:00,
2013-05-24 07:44:00,52.0,40.6,29.91,North,0,0.0,0.0,65,0.00,,-RA,0.00,VWS V14.00,2013-05-24 11:44:00,
2013-05-24 07:59:00,51.8,40.4,29.91,North,0,0.0,0.0,65,0.00,,-RA,0.00,VWS V14.00,2013-05-24 11:59:00,
2013-05-24 08:14:00,51.4,40.9,29.91,North,0,0.0,0.0,67,0.00,,-RA,0.00,VWS V14.00,2013-05-24 12:14:00,
2013-05-24 08:29:00,50.7,40.2,29.94,North,0,0.0,0.0,67,0.00,,-RA,0.00,VWS V14.00,2013-05-24 12:29:00,
2013-05-24 08:44:00,50.2,38.9,29.94,North,0,0.0,0.0,65,0.00,,-RA,0.00,VWS V14.00,2013-05-24 12:44:00,
2013-05-24 08:59:00,50.2,39.3,29.94,North,0,0.0,0.0,66,0.00,,-RA,0.00,VWS V14.00,2013-05-24 12:59:00,
2013-05-24 09:14:00,49.5,37.8,29.97,North,0,0.0,0.0,64,0.00,,-RA,0.00,VWS V14.00,2013-05-24 13:14:00,
2013-05-24 09:29:00,48.9,38.1,29.97,North,0,0.0,0.0,66,0.00,,-RA,0.00,VWS V14.00,2013-05-24 13:29:00,
2013-05-24 09:45:00,49.6,40.3,29.97,North,0,0.0,0.0,70,0.00,,-RA,0.00,VWS V14.00,2013-05-24 13:45:00,
2013-05-24 09:59:00,49.5,37.8,29.97,North,0,0.0,0.0,64,0.00,,-RA,0.00,VWS V14.00,2013-05-24 13:59:00,
2013-05-24 11:15:00,51.1,32.6,30.00,North,0,0.0,0.0,49,0.00,,-RA,0.00,VWS V14.00,2013-05-24 15:15:00,
2013-05-24 11:30:00,54.0,29.6,30.00,North,0,0.0,0.0,39,0.00,,-RA,0.00,VWS V14.00,2013-05-24 15:30:00,
2013-05-24 11:45:00,54.3,28.0,30.00,North,0,0.0,0.0,36,0.00,,-RA,0.00,VWS V14.00,2013-05-24 15:45:00,
2013-05-24 12:00:00,52.9,22.3,30.00,North,0,0.0,0.0,30,0.00,,-RA,0.00,VWS V14.00,2013-05-24 16:00:00,
2013-05-24 12:15:00,54.9,24.8,30.00,North,0,0.0,0.0,31,0.00,,OVC065,0.00,VWS V14.00,2013-05-24 16:15:00,
2013-05-24 12:29:00,54.0,20.8,30.00,North,0,0.0,0.0,27,0.00,,OVC065,0.00,VWS V14.00,2013-05-24 16:29:00,
2013-05-24 12:45:00,55.0,21.7,30.00,North,0,0.0,0.0,27,0.00,,OVC065,0.00,VWS V14.00,2013-05-24 16:45:00,
2013-05-24 13:00:00,54.3,20.2,30.00,North,0,0.0,0.0,26,0.00,,OVC055,0.00,VWS V14.00,2013-05-24 17:00:00,
2013-05-24 13:14:00,54.1,20.0,30.00,North,0,0.0,0.0,26,0.00,,OVC055,0.00,VWS V14.00,2013-05-24 17:14:00,
2013-05-24 13:30:00,55.2,21.0,30.00,North,0,0.0,0.0,26,0.00,,OVC055,0.00,VWS V14.00,2013-05-24 17:30:00,
2013-05-24 13:45:00,54.9,19.7,30.00,North,0,0.0,0.0,25,0.00,,OVC055,0.00,VWS V14.00,2013-05-24 17:45:00,
2013-05-24 14:00:00,55.4,20.2,30.00,North,0,0.0,0.0,25,0.00,,OVC038,0.00,VWS V14.00,2013-05-24 18:00:00,
2013-05-24 14:15:00,55.2,21.0,30.00,North,0,0.0,0.0,26,0.00,,OVC038,0.00,VWS V14.00,2013-05-24 18:15:00,
2013-05-24 14:30:00,55.4,17.2,30.00,North,0,0.0,0.0,22,0.00,,OVC038,0.00,VWS V14.00,2013-05-24 18:30:00,
2013-05-24 14:45:00,55.9,20.6,30.00,North,0,0.0,0.0,25,0.00,,OVC038,0.00,VWS V14.00,2013-05-24 18:45:00,
2013-05-24 15:00:00,57.0,18.6,30.00,North,0,0.0,0.0,22,0.00,,OVC038,0.00,VWS V14.00,2013-05-24 19:00:00,
2013-05-24 15:15:00,56.3,21.0,30.00,North,0,0.0,0.0,25,0.00,,OVC040,0.00,VWS V14.00,2013-05-24 19:15:00,
2013-05-24 15:30:00,54.5,19.4,30.00,North,0,0.0,0.0,25,0.00,,OVC040,0.00,VWS V14.00,2013-05-24 19:30:00,
2013-05-24 15:45:00,55.4,20.2,30.00,North,0,0.0,0.0,25,0.00,,OVC040,0.00,VWS V14.00,2013-05-24 19:45:00,
2013-05-24 16:00:00,55.4,17.2,30.03,North,0,0.0,0.0,22,0.00,,OVC044,0.00,VWS V14.00,2013-05-24 20:00:00,
2013-05-24 16:15:00,54.1,17.2,30.03,North,0,0.0,0.0,23,0.00,,OVC044,0.00,VWS V14.00,2013-05-24 20:15:00,
2013-05-24 16:30:00,53.8,18.8,30.03,North,0,0.0,0.0,25,0.00,,OVC044,0.00,VWS V14.00,2013-05-24 20:30:00,
2013-05-24 16:45:00,53.4,16.6,30.03,North,0,0.0,0.0,23,0.00,,OVC044,0.00,VWS V14.00,2013-05-24 20:45:00,
2013-05-24 17:00:00,52.9,16.1,30.03,North,0,0.0,0.0,23,0.00,,OVC044,0.00,VWS V14.00,2013-05-24 21:00:00,
2013-05-24 17:15:00,53.1,16.3,30.03,North,0,0.0,0.0,23,0.00,,OVC044,0.00,VWS V14.00,2013-05-24 21:15:00,
2013-05-24 17:30:00,51.8,15.2,30.06,North,0,0.0,0.0,23,0.00,,OVC044,0.00,VWS V14.00,2013-05-24 21:30:00,
2013-05-24 17:44:00,51.4,17.7,30.06,North,0,0.0,0.0,26,0.00,,OVC044,0.00,VWS V14.00,2013-05-24 21:44:00,
2013-05-24 17:59:00,50.9,17.2,30.06,North,0,0.0,0.0,26,0.00,,OVC045,0.00,VWS V14.00,2013-05-24 21:59:00,
2013-05-24 18:14:00,50.7,17.1,30.06,North,0,0.0,0.0,26,0.00,,OVC045,0.00,VWS V14.00,2013-05-24 22:14:00,
2013-05-24 18:29:00,50.2,17.5,30.06,North,0,0.0,0.0,27,0.00,,OVC045,0.00,VWS V14.00,2013-05-24 22:29:00,
2013-05-24 18:44:00,48.0,19.6,30.09,North,0,0.0,0.0,32,0.00,,OVC045,0.00,VWS V14.00,2013-05-24 22:44:00,
2013-05-24 18:59:00,48.0,18.8,30.09,North,0,0.0,0.0,31,0.00,,OVC043,0.00,VWS V14.00,2013-05-24 22:59:00,
2013-05-24 19:14:00,48.0,18.1,30.09,North,0,0.0,0.0,30,0.00,,OVC043,0.00,VWS V14.00,2013-05-24 23:14:00,
2013-05-24 19:29:00,48.0,16.5,30.12,North,0,0.0,0.0,28,0.00,,OVC045,0.00,VWS V14.00,2013-05-24 23:29:00,
2013-05-24 19:44:00,48.2,16.6,30.12,North,0,0.0,0.0,28,0.00,,OVC060,0.00,VWS V14.00,2013-05-24 23:44:00,
2013-05-24 19:59:00,48.2,16.6,30.12,North,0,0.0,0.0,28,0.00,,OVC060,0.00,VWS V14.00,2013-05-24 23:59:00,
2013-05-24 20:14:00,48.2,15.8,30.12,North,0,0.0,0.0,27,0.00,,OVC060,0.00,VWS V14.00,2013-05-25 00:14:00,
2013-05-24 20:29:00,48.4,16.0,30.12,North,0,0.0,0.0,27,0.00,,OVC036,0.00,VWS V14.00,2013-05-25 00:29:00,
2013-05-24 20:44:00,48.4,16.0,30.12,North,0,0.0,0.0,27,0.00,,OVC036,0.00,VWS V14.00,2013-05-25 00:44:00,
2013-05-24 20:59:00,48.4,15.1,30.12,North,0,0.0,0.0,26,0.00,,OVC060,0.00,VWS V14.00,2013-05-25 00:59:00,
2013-05-24 21:14:00,48.2,14.9,30.12,North,0,0.0,0.0,26,0.00,,OVC036,0.00,VWS V14.00,2013-05-25 01:14:00,
2013-05-24 21:29:00,48.2,13.1,30.12,North,0,0.0,0.0,24,0.00,,OVC036,0.00,VWS V14.00,2013-05-25 01:29:00,
2013-05-24 21:44:00,48.0,13.0,30.12,North,0,0.0,0.0,24,0.00,,OVC036,0.00,VWS V14.00,2013-05-25 01:44:00,
2013-05-24 21:59:00,48.0,13.0,30.12,North,0,0.0,0.0,24,0.00,,OVC036,0.00,VWS V14.00,2013-05-25 01:59:00,
2013-05-24 22:14:00,48.0,13.0,30.15,North,0,0.0,0.0,24,0.00,,OVC034,0.00,VWS V14.00,2013-05-25 02:14:00,
2013-05-24 22:29:00,47.8,12.8,30.15,North,0,0.0,0.0,24,0.00,,OVC034,0.00,VWS V14.00,2013-05-25 02:29:00,
2013-05-24 22:44:00,47.7,12.7,30.12,North,0,0.0,0.0,24,0.00,,OVC034,0.00,VWS V14.00,2013-05-25 02:44:00,
2013-05-24 22:59:00,47.7,12.7,30.12,North,0,0.0,0.0,24,0.00,,OVC034,0.00,VWS V14.00,2013-05-25 02:59:00,
2013-05-24 23:14:00,47.7,12.7,30.12,North,0,0.0,0.0,24,0.00,,OVC055,0.00,VWS V14.00,2013-05-25 03:14:00,
2013-05-24 23:29:00,47.8,12.8,30.12,North,0,0.0,0.0,24,0.00,,OVC055,0.00,VWS V14.00,2013-05-25 03:29:00,
2013-05-24 23:44:00,47.7,12.7,30.12,North,0,0.0,0.0,24,0.00,,OVC055,0.00,VWS V14.00,2013-05-25 03:44:00,
2013-05-24 23:59:00,47.7,12.7,30.12,North,0,0.0,0.0,24,0.00,,OVC060,0.00,VWS V14.00,2013-05-25 03:59:00,